Oak Grove, MI (48863)

3:57 PM EDT on September 26, 2016 (GMT -0400)
Tomsweather1 | | Change Station

Elev 955 ft 42.63 °N, 83.95 °W | Updated 6 seconds ago

Scattered Clouds
Scattered Clouds
66.4 °F
Feels Like 66.4 °F
N
4.2
Wind Variable Wind from SSW

Today
High -- | Low -- °F
--% Chance of Precip.
Yesterday
High -- | Low -- °F
Precip. -- in
Pressure 29.87 in
Visibility 10.0 miles
Clouds Scattered Clouds 6500 ft
Scattered Clouds 8000 ft
Dew Point 44 °F
Humidity 45%
Rainfall 0.09 in
Snow Depth Not available.
7:27 AM 7:24 PM
Waning Crescent, 17% visible
METAR KOZW 261954Z AUTO 26011G23KT 10SM SCT065 SCT080 20/06 A2987 RMK AO2 T01950063
Pressure 29.87 in
Visibility 10.0 miles
Clouds Scattered Clouds 6500 ft
Scattered Clouds 8000 ft
Dew Point 44 °F
Humidity 45%
Rainfall 0.09 in
Snow Depth Not available.
7:27 AM 7:24 PM
Waning Crescent, 17% visible
METAR KOZW 261954Z AUTO 26011G23KT 10SM SCT065 SCT080 20/06 A2987 RMK AO2 T01950063

10-Day Weather Forecast

Almanac

Astronomy

Sep. 26, 2016 Rise Set
Actual Time
Civil Twilight
Nautical Twilight
Astronomical Twilight
Moon
Length of Visible Light
Length of Day
Tomorrow will be .
, % of the Moon is Illuminated

Today's Extremes

State Highs State Lows

Community

WunderPhotos

Upload Photos

1,941,954 photos uploaded!

WunderBlog® & News

Nearby

Air Quality

  Air Quality AQ Index Pollutant
Not available.

Snow Depth

Station Depth Elevation

Earthquake Activity

City Distance Mag. Time & Date
Minimum magnitude displayed is 2.5.

Coastal Water Temperatures

Place Temperature

Stations

Nearby Weather Stations

Station Location Temp. Windchill Dew Point Humidity Wind Precip. Elev Updated Type
                   

Watches & Warnings

There are currently no watches in effect.